sensor_id;sensor_type;location;lat;lon;timestamp;pressure;altitude;pressure_sealevel;temperature;humidity
38616;BME280;24370;51.986;4.666;2023-11-19T00:01:04;100812.38;;;20.46;66.48
38616;BME280;24370;51.986;4.666;2023-11-19T00:03:30;100810.00;;;21.25;63.69
38616;BME280;24370;51.986;4.666;2023-11-19T00:05:56;100813.59;;;21.24;63.20
38616;BME280;24370;51.986;4.666;2023-11-19T00:08:21;100822.72;;;19.98;68.76
38616;BME280;24370;51.986;4.666;2023-11-19T00:10:46;100824.09;;;20.42;67.49
38616;BME280;24370;51.986;4.666;2023-11-19T00:13:12;100828.16;;;20.14;67.56
38616;BME280;24370;51.986;4.666;2023-11-19T00:15:37;100825.19;;;20.03;67.95
38616;BME280;24370;51.986;4.666;2023-11-19T00:18:03;100830.66;;;20.35;67.60
38616;BME280;24370;51.986;4.666;2023-11-19T00:20:30;100835.88;;;20.19;66.63
38616;BME280;24370;51.986;4.666;2023-11-19T00:22:56;100836.09;;;20.67;65.27
38616;BME280;24370;51.986;4.666;2023-11-19T00:25:21;100832.44;;;20.34;65.58
38616;BME280;24370;51.986;4.666;2023-11-19T00:27:47;100841.09;;;20.21;67.28
38616;BME280;24370;51.986;4.666;2023-11-19T00:30:13;100814.63;;;21.05;62.57
38616;BME280;24370;51.986;4.666;2023-11-19T00:32:39;100801.06;;;20.94;62.88
38616;BME280;24370;51.986;4.666;2023-11-19T00:35:05;100812.41;;;21.29;61.81
38616;BME280;24370;51.986;4.666;2023-11-19T00:37:31;100811.03;;;20.55;63.50
38616;BME280;24370;51.986;4.666;2023-11-19T00:39:56;100813.53;;;20.06;67.22
38616;BME280;24370;51.986;4.666;2023-11-19T00:42:22;100810.72;;;20.26;65.26
38616;BME280;24370;51.986;4.666;2023-11-19T00:44:49;100810.72;;;20.26;66.43
38616;BME280;24370;51.986;4.666;2023-11-19T00:47:15;100814.03;;;19.77;68.32
38616;BME280;24370;51.986;4.666;2023-11-19T00:49:40;100810.00;;;19.32;69.31
38616;BME280;24370;51.986;4.666;2023-11-19T00:52:06;100804.00;;;19.65;69.51
38616;BME280;24370;51.986;4.666;2023-11-19T00:54:32;100808.53;;;19.99;67.86
38616;BME280;24370;51.986;4.666;2023-11-19T00:56:57;100792.88;;;20.63;64.77
38616;BME280;24370;51.986;4.666;2023-11-19T00:59:22;100781.53;;;21.43;61.53
38616;BME280;24370;51.986;4.666;2023-11-19T01:01:48;100784.59;;;20.36;64.11
38616;BME280;24370;51.986;4.666;2023-11-19T01:04:14;100787.75;;;20.60;63.90
38616;BME280;24370;51.986;4.666;2023-11-19T01:06:40;100789.56;;;20.77;63.63
38616;BME280;24370;51.986;4.666;2023-11-19T01:09:07;100772.25;;;20.35;64.67
38616;BME280;24370;51.986;4.666;2023-11-19T01:11:34;100779.88;;;20.41;64.04
38616;BME280;24370;51.986;4.666;2023-11-19T01:14:02;100782.78;;;20.19;64.50
38616;BME280;24370;51.986;4.666;2023-11-19T01:16:28;100781.38;;;20.98;60.11
38616;BME280;24370;51.986;4.666;2023-11-19T01:18:53;100787.84;;;20.41;62.84
38616;BME280;24370;51.986;4.666;2023-11-19T01:21:19;100786.63;;;20.48;61.18
38616;BME280;24370;51.986;4.666;2023-11-19T01:23:44;100784.38;;;20.74;59.85
38616;BME280;24370;51.986;4.666;2023-11-19T01:26:11;100779.50;;;19.60;64.84
38616;BME280;24370;51.986;4.666;2023-11-19T01:28:40;100785.44;;;20.02;63.67
38616;BME280;24370;51.986;4.666;2023-11-19T01:31:12;100792.22;;;20.25;61.48
38616;BME280;24370;51.986;4.666;2023-11-19T01:33:40;100788.22;;;19.44;66.17
38616;BME280;24370;51.986;4.666;2023-11-19T01:36:06;100782.31;;;19.57;64.80
38616;BME280;24370;51.986;4.666;2023-11-19T01:38:33;100783.00;;;19.24;65.43
38616;BME280;24370;51.986;4.666;2023-11-19T01:41:02;100779.97;;;19.87;62.61
38616;BME280;24370;51.986;4.666;2023-11-19T01:43:46;100793.34;;;20.03;60.96
38616;BME280;24370;51.986;4.666;2023-11-19T01:46:12;100795.19;;;20.01;60.11
38616;BME280;24370;51.986;4.666;2023-11-19T01:48:42;100789.44;;;20.28;59.88
38616;BME280;24370;51.986;4.666;2023-11-19T01:51:09;100801.44;;;19.82;61.36
38616;BME280;24370;51.986;4.666;2023-11-19T01:53:36;100795.91;;;19.87;60.42
38616;BME280;24370;51.986;4.666;2023-11-19T01:56:04;100786.16;;;20.23;60.03
38616;BME280;24370;51.986;4.666;2023-11-19T01:58:30;100779.28;;;20.19;59.55
38616;BME280;24370;51.986;4.666;2023-11-19T02:00:57;100776.22;;;19.55;60.75
38616;BME280;24370;51.986;4.666;2023-11-19T02:03:22;100789.34;;;19.94;60.62
38616;BME280;24370;51.986;4.666;2023-11-19T02:05:51;100788.97;;;20.20;59.56
38616;BME280;24370;51.986;4.666;2023-11-19T02:08:18;100795.56;;;19.57;59.86
38616;BME280;24370;51.986;4.666;2023-11-19T02:10:44;100798.78;;;20.00;59.81
38616;BME280;24370;51.986;4.666;2023-11-19T02:13:10;100810.66;;;19.37;62.10
38616;BME280;24370;51.986;4.666;2023-11-19T02:15:35;100814.47;;;19.87;60.22
38616;BME280;24370;51.986;4.666;2023-11-19T02:18:30;100810.75;;;19.15;63.06
38616;BME280;24370;51.986;4.666;2023-11-19T02:20:57;100809.63;;;19.02;64.00
38616;BME280;24370;51.986;4.666;2023-11-19T02:23:23;100806.50;;;19.12;62.26
38616;BME280;24370;51.986;4.666;2023-11-19T02:28:24;100810.19;;;19.27;63.10
38616;BME280;24370;51.986;4.666;2023-11-19T02:30:49;100803.78;;;19.33;61.01
38616;BME280;24370;51.986;4.666;2023-11-19T02:33:15;100806.50;;;19.12;62.90
38616;BME280;24370;51.986;4.666;2023-11-19T02:35:41;100818.94;;;19.29;63.02
38616;BME280;24370;51.986;4.666;2023-11-19T02:38:06;100800.81;;;19.39;62.18
38616;BME280;24370;51.986;4.666;2023-11-19T02:40:32;100816.25;;;18.71;64.00
38616;BME280;24370;51.986;4.666;2023-11-19T02:42:58;100790.81;;;18.87;64.61
38616;BME280;24370;51.986;4.666;2023-11-19T02:45:24;100806.56;;;18.71;64.22
38616;BME280;24370;51.986;4.666;2023-11-19T02:47:51;100805.78;;;19.28;60.89
38616;BME280;24370;51.986;4.666;2023-11-19T02:50:18;100804.41;;;19.75;59.83
38616;BME280;24370;51.986;4.666;2023-11-19T02:52:51;100787.56;;;19.01;62.47
38616;BME280;24370;51.986;4.666;2023-11-19T02:55:16;100777.91;;;19.00;61.98
38616;BME280;24370;51.986;4.666;2023-11-19T02:57:43;100789.78;;;18.71;62.73
38616;BME280;24370;51.986;4.666;2023-11-19T03:00:17;100781.69;;;19.52;58.67
38616;BME280;24370;51.986;4.666;2023-11-19T03:02:44;100787.84;;;18.95;60.83
38616;BME280;24370;51.986;4.666;2023-11-19T03:05:14;100800.44;;;18.69;61.50
38616;BME280;24370;51.986;4.666;2023-11-19T03:07:43;100787.78;;;18.76;61.94
38616;BME280;24370;51.986;4.666;2023-11-19T03:10:12;100780.34;;;18.65;62.95
38616;BME280;24370;51.986;4.666;2023-11-19T03:12:42;100787.50;;;18.63;62.20
38616;BME280;24370;51.986;4.666;2023-11-19T03:15:08;100793.72;;;18.62;61.72
38616;BME280;24370;51.986;4.666;2023-11-19T03:17:40;100789.34;;;18.20;63.68
38616;BME280;24370;51.986;4.666;2023-11-19T03:20:06;100781.91;;;18.69;61.04
38616;BME280;24370;51.986;4.666;2023-11-19T03:22:36;100767.44;;;19.35;58.32
38616;BME280;24370;51.986;4.666;2023-11-19T03:25:02;100758.34;;;19.22;58.68
38616;BME280;24370;51.986;4.666;2023-11-19T03:27:27;100762.25;;;18.75;58.96
38616;BME280;24370;51.986;4.666;2023-11-19T03:29:52;100765.41;;;18.83;60.25
38616;BME280;24370;51.986;4.666;2023-11-19T03:32:18;100754.56;;;19.64;56.82
38616;BME280;24370;51.986;4.666;2023-11-19T03:34:43;100758.78;;;19.31;57.71
38616;BME280;24370;51.986;4.666;2023-11-19T03:37:08;100766.06;;;18.28;60.93
38616;BME280;24370;51.986;4.666;2023-11-19T03:39:34;100772.34;;;18.86;59.53
38616;BME280;24370;51.986;4.666;2023-11-19T03:42:02;100779.03;;;18.55;61.48
38616;BME280;24370;51.986;4.666;2023-11-19T03:44:28;100773.47;;;18.61;61.71
38616;BME280;24370;51.986;4.666;2023-11-19T03:46:54;100768.38;;;19.15;59.76
38616;BME280;24370;51.986;4.666;2023-11-19T03:49:19;100785.22;;;18.74;60.86
38616;BME280;24370;51.986;4.666;2023-11-19T03:51:44;100784.41;;;18.93;60.93
38616;BME280;24370;51.986;4.666;2023-11-19T03:54:10;100782.28;;;18.80;61.18
38616;BME280;24370;51.986;4.666;2023-11-19T03:56:36;100778.97;;;18.36;60.62
38616;BME280;24370;51.986;4.666;2023-11-19T03:59:02;100790.94;;;18.24;62.52
38616;BME280;24370;51.986;4.666;2023-11-19T04:01:28;100784.34;;;17.91;63.76
38616;BME280;24370;51.986;4.666;2023-11-19T04:03:53;100782.22;;;18.22;61.90
38616;BME280;24370;51.986;4.666;2023-11-19T04:06:18;100781.47;;;18.59;60.44
38616;BME280;24370;51.986;4.666;2023-11-19T04:08:44;100801.25;;;18.71;60.00
38616;BME280;24370;51.986;4.666;2023-11-19T04:11:10;100803.84;;;17.89;62.18
38616;BME280;24370;51.986;4.666;2023-11-19T04:13:35;100808.59;;;17.80;63.48
38616;BME280;24370;51.986;4.666;2023-11-19T04:16:01;100801.25;;;18.09;61.43
38616;BME280;24370;51.986;4.666;2023-11-19T04:18:26;100800.31;;;18.52;60.13
38616;BME280;24370;51.986;4.666;2023-11-19T04:20:52;100799.78;;;18.43;59.71
38616;BME280;24370;51.986;4.666;2023-11-19T04:23:17;100798.63;;;18.30;60.34
38616;BME280;24370;51.986;4.666;2023-11-19T04:25:43;100796.41;;;17.99;61.45
38616;BME280;24370;51.986;4.666;2023-11-19T04:28:08;100791.31;;;18.14;61.07
38616;BME280;24370;51.986;4.666;2023-11-19T04:30:33;100803.84;;;18.31;58.92
38616;BME280;24370;51.986;4.666;2023-11-19T04:33:00;100788.63;;;18.37;58.79
38616;BME280;24370;51.986;4.666;2023-11-19T04:35:25;100800.59;;;18.04;59.46
38616;BME280;24370;51.986;4.666;2023-11-19T04:37:51;100808.00;;;18.78;57.80
38616;BME280;24370;51.986;4.666;2023-11-19T04:40:17;100802.69;;;17.96;59.33
38616;BME280;24370;51.986;4.666;2023-11-19T04:42:43;100796.03;;;18.49;57.96
38616;BME280;24370;51.986;4.666;2023-11-19T04:45:09;100793.72;;;18.41;58.11
38616;BME280;24370;51.986;4.666;2023-11-19T04:47:36;100797.50;;;17.49;60.16
38616;BME280;24370;51.986;4.666;2023-11-19T04:50:02;100803.09;;;18.28;58.42
38616;BME280;24370;51.986;4.666;2023-11-19T04:52:28;100807.03;;;18.40;58.80
38616;BME280;24370;51.986;4.666;2023-11-19T04:54:53;100799.28;;;18.35;58.97
38616;BME280;24370;51.986;4.666;2023-11-19T04:57:18;100804.03;;;17.62;60.59
38616;BME280;24370;51.986;4.666;2023-11-19T04:59:44;100797.06;;;18.45;57.40
38616;BME280;24370;51.986;4.666;2023-11-19T05:02:09;100798.19;;;17.98;59.92
38616;BME280;24370;51.986;4.666;2023-11-19T05:04:35;100804.09;;;18.25;58.78
38616;BME280;24370;51.986;4.666;2023-11-19T05:07:00;100810.78;;;17.69;61.17
38616;BME280;24370;51.986;4.666;2023-11-19T05:09:26;100813.25;;;17.96;59.12
38616;BME280;24370;51.986;4.666;2023-11-19T05:11:51;100806.81;;;18.24;57.67
38616;BME280;24370;51.986;4.666;2023-11-19T05:14:17;100813.75;;;18.06;59.08
38616;BME280;24370;51.986;4.666;2023-11-19T05:16:43;100816.31;;;18.07;60.40
38616;BME280;24370;51.986;4.666;2023-11-19T05:19:09;100800.06;;;18.17;59.53
38616;BME280;24370;51.986;4.666;2023-11-19T05:21:34;100809.06;;;18.54;58.61
38616;BME280;24370;51.986;4.666;2023-11-19T05:24:01;100800.84;;;18.39;59.21
38616;BME280;24370;51.986;4.666;2023-11-19T05:26:29;100804.81;;;18.08;59.86
38616;BME280;24370;51.986;4.666;2023-11-19T05:28:55;100812.25;;;18.21;59.46
38616;BME280;24370;51.986;4.666;2023-11-19T05:31:20;100797.66;;;18.72;57.50
38616;BME280;24370;51.986;4.666;2023-11-19T05:33:46;100798.25;;;17.74;61.26
38616;BME280;24370;51.986;4.666;2023-11-19T05:36:12;100803.25;;;18.45;58.48
38616;BME280;24370;51.986;4.666;2023-11-19T05:38:38;100807.47;;;18.08;58.64
38616;BME280;24370;51.986;4.666;2023-11-19T05:41:04;100800.97;;;18.77;58.89
38616;BME280;24370;51.986;4.666;2023-11-19T05:43:30;100810.50;;;18.61;58.76
38616;BME280;24370;51.986;4.666;2023-11-19T05:45:55;100807.88;;;18.20;59.56
38616;BME280;24370;51.986;4.666;2023-11-19T05:48:21;100803.44;;;18.20;59.22
38616;BME280;24370;51.986;4.666;2023-11-19T05:50:46;100810.03;;;17.88;60.21
38616;BME280;24370;51.986;4.666;2023-11-19T05:53:14;100814.72;;;17.81;59.72
38616;BME280;24370;51.986;4.666;2023-11-19T05:55:40;100807.59;;;18.05;59.31
38616;BME280;24370;51.986;4.666;2023-11-19T05:58:12;100819.78;;;18.09;57.36
38616;BME280;24370;51.986;4.666;2023-11-19T06:00:38;100812.06;;;17.59;58.63
38616;BME280;24370;51.986;4.666;2023-11-19T06:03:05;100816.53;;;18.03;58.46
38616;BME280;24370;51.986;4.666;2023-11-19T06:05:32;100810.13;;;18.08;58.34
38616;BME280;24370;51.986;4.666;2023-11-19T06:07:57;100813.47;;;17.90;58.74
38616;BME280;24370;51.986;4.666;2023-11-19T06:10:22;100812.53;;;17.92;58.86
38616;BME280;24370;51.986;4.666;2023-11-19T06:12:54;100814.50;;;18.71;56.79
38616;BME280;24370;51.986;4.666;2023-11-19T06:15:21;100812.47;;;18.14;57.19
38616;BME280;24370;51.986;4.666;2023-11-19T06:17:46;100815.00;;;17.97;58.23
38616;BME280;24370;51.986;4.666;2023-11-19T06:20:12;100804.63;;;17.91;58.18
38616;BME280;24370;51.986;4.666;2023-11-19T06:22:39;100809.56;;;18.00;58.75
38616;BME280;24370;51.986;4.666;2023-11-19T06:25:07;100810.97;;;18.71;56.49
38616;BME280;24370;51.986;4.666;2023-11-19T06:27:32;100806.13;;;18.60;56.21
38616;BME280;24370;51.986;4.666;2023-11-19T06:29:58;100802.56;;;18.61;56.31
38616;BME280;24370;51.986;4.666;2023-11-19T06:32:24;100814.53;;;18.28;56.61
38616;BME280;24370;51.986;4.666;2023-11-19T06:34:49;100799.31;;;18.75;54.91
38616;BME280;24370;51.986;4.666;2023-11-19T06:37:14;100821.03;;;18.62;56.43
38616;BME280;24370;51.986;4.666;2023-11-19T06:39:40;100816.31;;;18.07;57.92
38616;BME280;24370;51.986;4.666;2023-11-19T06:42:06;100818.06;;;18.50;56.95
38616;BME280;24370;51.986;4.666;2023-11-19T06:44:32;100828.22;;;17.97;57.02
38616;BME280;24370;51.986;4.666;2023-11-19T06:46:58;100836.28;;;17.70;58.34
38616;BME280;24370;51.986;4.666;2023-11-19T06:49:23;100832.22;;;18.48;56.06
38616;BME280;24370;51.986;4.666;2023-11-19T06:51:49;100844.28;;;17.91;58.07
38616;BME280;24370;51.986;4.666;2023-11-19T06:54:15;100840.22;;;18.47;56.52
38616;BME280;24370;51.986;4.666;2023-11-19T06:56:41;100843.13;;;18.61;55.78
38616;BME280;24370;51.986;4.666;2023-11-19T06:59:07;100849.44;;;18.59;56.01
38616;BME280;24370;51.986;4.666;2023-11-19T07:01:36;100850.28;;;18.59;56.28
38616;BME280;24370;51.986;4.666;2023-11-19T07:04:02;100842.13;;;18.23;57.48
38616;BME280;24370;51.986;4.666;2023-11-19T07:06:33;100848.03;;;18.29;57.68
38616;BME280;24370;51.986;4.666;2023-11-19T07:08:58;100848.78;;;18.54;56.48
38616;BME280;24370;51.986;4.666;2023-11-19T07:11:27;100852.56;;;18.05;58.44
38616;BME280;24370;51.986;4.666;2023-11-19T07:13:53;100857.16;;;18.63;57.41
38616;BME280;24370;51.986;4.666;2023-11-19T07:16:19;100860.84;;;18.18;59.01
38616;BME280;24370;51.986;4.666;2023-11-19T07:18:46;100850.63;;;18.09;59.29
38616;BME280;24370;51.986;4.666;2023-11-19T07:21:15;100848.56;;;18.38;57.82
38616;BME280;24370;51.986;4.666;2023-11-19T07:23:40;100851.22;;;17.71;59.95
38616;BME280;24370;51.986;4.666;2023-11-19T07:26:06;100842.22;;;17.99;58.32
38616;BME280;24370;51.986;4.666;2023-11-19T07:28:33;100847.31;;;18.46;58.83
38616;BME280;24370;51.986;4.666;2023-11-19T07:30:59;100848.03;;;18.71;56.91
38616;BME280;24370;51.986;4.666;2023-11-19T07:33:27;100852.00;;;18.60;56.80
38616;BME280;24370;51.986;4.666;2023-11-19T07:35:53;100838.56;;;18.65;57.02
38616;BME280;24370;51.986;4.666;2023-11-19T07:38:18;100847.53;;;18.20;58.28
38616;BME280;24370;51.986;4.666;2023-11-19T07:40:43;100850.13;;;18.21;58.44
38616;BME280;24370;51.986;4.666;2023-11-19T07:43:09;100845.06;;;18.78;56.04
38616;BME280;24370;51.986;4.666;2023-11-19T07:45:34;100846.78;;;19.38;54.24
38616;BME280;24370;51.986;4.666;2023-11-19T07:48:00;100851.41;;;18.54;57.45
38616;BME280;24370;51.986;4.666;2023-11-19T07:50:26;100848.69;;;18.96;56.53
38616;BME280;24370;51.986;4.666;2023-11-19T07:52:52;100838.81;;;18.18;58.00
38616;BME280;24370;51.986;4.666;2023-11-19T07:55:17;100846.97;;;18.95;55.81
38616;BME280;24370;51.986;4.666;2023-11-19T07:57:42;100845.38;;;19.31;54.26
38616;BME280;24370;51.986;4.666;2023-11-19T08:00:08;100854.06;;;18.74;55.94
38616;BME280;24370;51.986;4.666;2023-11-19T08:02:37;100844.69;;;18.67;56.36
38616;BME280;24370;51.986;4.666;2023-11-19T08:05:03;100844.25;;;18.56;57.45
38616;BME280;24370;51.986;4.666;2023-11-19T08:07:28;100851.56;;;18.51;56.32
38616;BME280;24370;51.986;4.666;2023-11-19T08:09:54;100853.91;;;19.57;53.36
38616;BME280;24370;51.986;4.666;2023-11-19T08:12:19;100860.69;;;19.62;54.26
38616;BME280;24370;51.986;4.666;2023-11-19T08:14:44;100863.03;;;19.11;54.95
38616;BME280;24370;51.986;4.666;2023-11-19T08:17:10;100859.31;;;19.15;55.14
38616;BME280;24370;51.986;4.666;2023-11-19T08:19:35;100862.78;;;18.76;56.36
38616;BME280;24370;51.986;4.666;2023-11-19T08:22:01;100860.72;;;19.04;54.57
38616;BME280;24370;51.986;4.666;2023-11-19T08:24:26;100867.44;;;18.28;55.90
38616;BME280;24370;51.986;4.666;2023-11-19T08:26:51;100872.44;;;17.70;58.28
38616;BME280;24370;51.986;4.666;2023-11-19T08:29:17;100862.38;;;19.06;55.12
38616;BME280;24370;51.986;4.666;2023-11-19T08:31:42;100861.47;;;19.07;54.95
38616;BME280;24370;51.986;4.666;2023-11-19T08:34:07;100866.91;;;19.04;54.61
38616;BME280;24370;51.986;4.666;2023-11-19T08:36:34;100867.50;;;19.30;54.11
38616;BME280;24370;51.986;4.666;2023-11-19T08:39:00;100864.34;;;19.41;53.44
38616;BME280;24370;51.986;4.666;2023-11-19T08:41:25;100854.97;;;19.33;55.31
38616;BME280;24370;51.986;4.666;2023-11-19T08:43:52;100857.47;;;19.37;53.34
38616;BME280;24370;51.986;4.666;2023-11-19T08:46:17;100861.13;;;19.34;54.16
38616;BME280;24370;51.986;4.666;2023-11-19T08:48:43;100849.53;;;18.97;55.22
38616;BME280;24370;51.986;4.666;2023-11-19T08:51:08;100858.13;;;19.42;53.94
38616;BME280;24370;51.986;4.666;2023-11-19T08:53:34;100864.31;;;19.22;54.31
38616;BME280;24370;51.986;4.666;2023-11-19T08:56:00;100855.03;;;19.32;54.53
38616;BME280;24370;51.986;4.666;2023-11-19T08:58:27;100853.13;;;20.10;53.46
38616;BME280;24370;51.986;4.666;2023-11-19T09:00:53;100850.38;;;19.56;54.40
38616;BME280;24370;51.986;4.666;2023-11-19T09:03:18;100854.91;;;19.54;54.79
38616;BME280;24370;51.986;4.666;2023-11-19T09:05:45;100859.47;;;19.70;54.04
38616;BME280;24370;51.986;4.666;2023-11-19T09:08:10;100864.06;;;19.66;53.97
38616;BME280;24370;51.986;4.666;2023-11-19T09:10:37;100854.16;;;19.50;54.74
38616;BME280;24370;51.986;4.666;2023-11-19T09:13:02;100863.84;;;18.93;54.93
38616;BME280;24370;51.986;4.666;2023-11-19T09:15:29;100869.22;;;18.91;55.80
38616;BME280;24370;51.986;4.666;2023-11-19T09:17:54;100861.91;;;19.36;54.80
38616;BME280;24370;51.986;4.666;2023-11-19T09:20:20;100866.84;;;20.19;53.04
38616;BME280;24370;51.986;4.666;2023-11-19T09:22:45;100865.34;;;19.57;54.07
38616;BME280;24370;51.986;4.666;2023-11-19T09:25:11;100862.91;;;19.14;54.58
38616;BME280;24370;51.986;4.666;2023-11-19T09:27:37;100874.09;;;18.80;55.64
38616;BME280;24370;51.986;4.666;2023-11-19T09:30:02;100866.63;;;18.48;57.38
38616;BME280;24370;51.986;4.666;2023-11-19T09:32:29;100865.91;;;19.64;54.83
38616;BME280;24370;51.986;4.666;2023-11-19T09:34:54;100868.22;;;18.94;56.17
38616;BME280;24370;51.986;4.666;2023-11-19T09:37:20;100859.19;;;19.76;54.30
38616;BME280;24370;51.986;4.666;2023-11-19T09:39:45;100852.75;;;19.81;53.87
38616;BME280;24370;51.986;4.666;2023-11-19T09:42:11;100859.88;;;19.79;53.91
38616;BME280;24370;51.986;4.666;2023-11-19T09:44:38;100853.97;;;19.36;55.17
38616;BME280;24370;51.986;4.666;2023-11-19T09:47:05;100861.97;;;19.73;53.78
38616;BME280;24370;51.986;4.666;2023-11-19T09:49:33;100856.19;;;19.45;54.13
38616;BME280;24370;51.986;4.666;2023-11-19T09:52:02;100845.84;;;19.96;52.71
38616;BME280;24370;51.986;4.666;2023-11-19T09:54:28;100862.34;;;19.65;52.16
38616;BME280;24370;51.986;4.666;2023-11-19T09:56:55;100869.47;;;20.01;52.15
38616;BME280;24370;51.986;4.666;2023-11-19T09:59:25;100860.00;;;20.49;50.41
38616;BME280;24370;51.986;4.666;2023-11-19T10:01:50;100851.06;;;19.98;51.84
38616;BME280;24370;51.986;4.666;2023-11-19T10:04:17;100852.31;;;20.96;49.74
38616;BME280;24370;51.986;4.666;2023-11-19T10:06:44;100858.50;;;20.26;50.75
38616;BME280;24370;51.986;4.666;2023-11-19T10:09:11;100849.69;;;20.26;51.30
38616;BME280;24370;51.986;4.666;2023-11-19T10:11:36;100842.63;;;19.90;50.84
38616;BME280;24370;51.986;4.666;2023-11-19T10:14:02;100852.41;;;20.07;49.83
38616;BME280;24370;51.986;4.666;2023-11-19T10:16:30;100847.69;;;20.48;49.19
38616;BME280;24370;51.986;4.666;2023-11-19T10:18:56;100846.34;;;19.09;51.79
38616;BME280;24370;51.986;4.666;2023-11-19T10:21:22;100838.72;;;19.41;51.17
38616;BME280;24370;51.986;4.666;2023-11-19T10:23:57;100847.66;;;20.13;50.02
38616;BME280;24370;51.986;4.666;2023-11-19T10:26:26;100847.50;;;19.99;49.63
38616;BME280;24370;51.986;4.666;2023-11-19T10:28:52;100857.81;;;20.75;47.95
38616;BME280;24370;51.986;4.666;2023-11-19T10:31:18;100832.19;;;20.22;48.42
38616;BME280;24370;51.986;4.666;2023-11-19T10:33:44;100841.41;;;20.67;48.14
38616;BME280;24370;51.986;4.666;2023-11-19T10:36:13;100827.78;;;20.91;46.50
38616;BME280;24370;51.986;4.666;2023-11-19T10:38:39;100833.00;;;21.90;45.66
38616;BME280;24370;51.986;4.666;2023-11-19T10:41:05;100842.03;;;20.90;47.07
38616;BME280;24370;51.986;4.666;2023-11-19T10:43:31;100838.13;;;21.29;46.22
38616;BME280;24370;51.986;4.666;2023-11-19T10:46:14;100835.75;;;20.91;47.40
38616;BME280;24370;51.986;4.666;2023-11-19T10:48:46;100831.09;;;20.26;48.72
38616;BME280;24370;51.986;4.666;2023-11-19T10:51:13;100839.28;;;20.39;47.80
38616;BME280;24370;51.986;4.666;2023-11-19T10:53:46;100833.84;;;19.32;50.38
38616;BME280;24370;51.986;4.666;2023-11-19T10:56:13;100827.19;;;19.98;49.71
38616;BME280;24370;51.986;4.666;2023-11-19T10:58:44;100836.16;;;19.95;50.06
38616;BME280;24370;51.986;4.666;2023-11-19T11:01:16;100828.28;;;20.81;48.74
38616;BME280;24370;51.986;4.666;2023-11-19T11:03:44;100829.72;;;20.71;49.71
38616;BME280;24370;51.986;4.666;2023-11-19T11:06:12;100827.00;;;19.83;52.02
38616;BME280;24370;51.986;4.666;2023-11-19T11:08:39;100825.88;;;20.07;51.72
38616;BME280;24370;51.986;4.666;2023-11-19T11:11:05;100831.97;;;19.15;54.69
38616;BME280;24370;51.986;4.666;2023-11-19T11:13:32;100828.38;;;19.92;54.09
38616;BME280;24370;51.986;4.666;2023-11-19T11:16:02;100833.63;;;20.11;52.55
38616;BME280;24370;51.986;4.666;2023-11-19T11:18:31;100832.75;;;20.46;51.83
38616;BME280;24370;51.986;4.666;2023-11-19T11:30:27;100829.31;;;20.61;50.97
38616;BME280;24370;51.986;4.666;2023-11-19T11:33:07;100824.97;;;20.94;50.58
38616;BME280;24370;51.986;4.666;2023-11-19T11:38:21;100811.13;;;20.71;51.27
38616;BME280;24370;51.986;4.666;2023-11-19T11:43:53;100810.19;;;21.22;50.22
38616;BME280;24370;51.986;4.666;2023-11-19T11:49:03;100795.06;;;20.90;49.78
38616;BME280;24370;51.986;4.666;2023-11-19T11:54:10;100798.34;;;21.27;47.71
38616;BME280;24370;51.986;4.666;2023-11-19T11:56:39;100804.78;;;20.56;48.81
38616;BME280;24370;51.986;4.666;2023-11-19T11:59:16;100802.94;;;20.92;48.37
38616;BME280;24370;51.986;4.666;2023-11-19T12:02:00;100807.09;;;21.29;46.89
38616;BME280;24370;51.986;4.666;2023-11-19T12:04:26;100799.91;;;21.31;46.98
38616;BME280;24370;51.986;4.666;2023-11-19T12:09:28;100790.88;;;21.50;46.71
38616;BME280;24370;51.986;4.666;2023-11-19T12:12:19;100813.28;;;20.63;47.30
38616;BME280;24370;51.986;4.666;2023-11-19T12:20:02;100799.25;;;21.60;46.18
38616;BME280;24370;51.986;4.666;2023-11-19T12:22:28;100797.34;;;21.30;46.16
38616;BME280;24370;51.986;4.666;2023-11-19T12:24:54;100809.00;;;20.78;48.28
38616;BME280;24370;51.986;4.666;2023-11-19T12:27:20;100800.91;;;21.13;47.19
38616;BME280;24370;51.986;4.666;2023-11-19T12:29:48;100801.13;;;21.58;46.12
38616;BME280;24370;51.986;4.666;2023-11-19T12:32:13;100798.38;;;21.75;46.21
38616;BME280;24370;51.986;4.666;2023-11-19T12:34:38;100799.63;;;21.04;47.04
38616;BME280;24370;51.986;4.666;2023-11-19T12:37:04;100795.94;;;21.71;46.22
38616;BME280;24370;51.986;4.666;2023-11-19T12:39:30;100802.44;;;21.01;47.07
38616;BME280;24370;51.986;4.666;2023-11-19T12:41:56;100816.28;;;20.39;48.73
38616;BME280;24370;51.986;4.666;2023-11-19T12:44:24;100800.19;;;20.77;48.61
38616;BME280;24370;51.986;4.666;2023-11-19T12:47:08;100796.06;;;20.54;48.83
38616;BME280;24370;51.986;4.666;2023-11-19T12:49:36;100797.63;;;20.06;49.44
38616;BME280;24370;51.986;4.666;2023-11-19T12:52:10;100806.44;;;19.89;49.40
38616;BME280;24370;51.986;4.666;2023-11-19T12:54:36;100802.50;;;19.78;50.13
38616;BME280;24370;51.986;4.666;2023-11-19T12:57:02;100810.19;;;20.72;48.30
38616;BME280;24370;51.986;4.666;2023-11-19T12:59:29;100805.28;;;20.12;49.90
38616;BME280;24370;51.986;4.666;2023-11-19T13:01:58;100805.84;;;18.87;52.49
38616;BME280;24370;51.986;4.666;2023-11-19T13:04:28;100806.25;;;19.92;49.99
38616;BME280;24370;51.986;4.666;2023-11-19T13:06:55;100804.66;;;20.42;49.20
38616;BME280;24370;51.986;4.666;2023-11-19T13:09:26;100801.75;;;20.29;49.24
38616;BME280;24370;51.986;4.666;2023-11-19T13:11:53;100804.88;;;20.02;50.56
38616;BME280;24370;51.986;4.666;2023-11-19T13:14:19;100790.38;;;20.44;49.92
38616;BME280;24370;51.986;4.666;2023-11-19T13:16:45;100801.44;;;20.17;50.61
38616;BME280;24370;51.986;4.666;2023-11-19T13:19:15;100798.16;;;20.30;50.05